createdAt,value
2018-09-15T00:01:08.854Z,18.10
2018-09-15T00:03:42.836Z,18.00
2018-09-15T00:06:16.967Z,18.10
2018-09-15T00:08:51.038Z,18.00
2018-09-15T00:11:25.090Z,18.10
2018-09-15T00:13:59.088Z,17.90
2018-09-15T00:16:33.253Z,17.70
2018-09-15T00:19:07.407Z,17.70
2018-09-15T00:21:41.450Z,17.70
2018-09-15T00:24:15.396Z,17.80
2018-09-15T00:26:49.505Z,17.90
2018-09-15T00:29:23.479Z,17.90
2018-09-15T00:31:57.521Z,17.90
2018-09-15T00:34:32.430Z,17.80
2018-09-15T00:37:06.542Z,17.80
2018-09-15T00:39:40.656Z,17.70
2018-09-15T00:42:14.660Z,17.70
2018-09-15T00:44:48.792Z,17.60
2018-09-15T00:47:22.708Z,17.60
2018-09-15T00:49:56.891Z,17.60
2018-09-15T00:52:30.846Z,17.60
2018-09-15T00:55:04.967Z,17.50
2018-09-15T00:57:39.026Z,17.50
2018-09-15T01:00:13.126Z,17.30
2018-09-15T01:02:47.268Z,17.30
2018-09-15T01:05:21.537Z,17.20
2018-09-15T01:07:55.746Z,17.10
2018-09-15T01:10:29.929Z,17.10
2018-09-15T01:13:03.900Z,17.10
2018-09-15T01:15:38.648Z,17.10
2018-09-15T01:18:12.739Z,17.00
2018-09-15T01:20:46.786Z,16.90
2018-09-15T01:23:20.843Z,16.80
2018-09-15T01:25:55.056Z,16.60
2018-09-15T01:28:29.167Z,16.60
2018-09-15T01:31:03.364Z,16.70
2018-09-15T01:33:37.363Z,16.60
2018-09-15T01:36:11.311Z,16.60
2018-09-15T01:38:45.961Z,16.60
2018-09-15T01:41:20.094Z,16.50
2018-09-15T01:43:54.189Z,16.50
2018-09-15T01:46:28.378Z,16.50
2018-09-15T01:49:02.436Z,16.50
2018-09-15T01:51:36.368Z,16.40
2018-09-15T01:54:10.321Z,16.40
2018-09-15T01:56:44.496Z,16.40
2018-09-15T01:59:18.656Z,16.30
2018-09-15T02:01:52.722Z,16.30
2018-09-15T02:04:26.905Z,16.20
2018-09-15T02:07:00.938Z,16.10
2018-09-15T02:09:35.020Z,16.00
2018-09-15T02:12:09.178Z,15.70
2018-09-15T02:14:43.241Z,15.70
2018-09-15T02:17:17.350Z,15.90
2018-09-15T02:19:51.390Z,15.90
2018-09-15T02:22:25.419Z,16.00
2018-09-15T02:24:59.409Z,15.70
2018-09-15T02:27:33.390Z,15.80
2018-09-15T02:30:08.242Z,15.40
2018-09-15T02:32:42.389Z,15.40
2018-09-15T02:35:16.473Z,15.20
2018-09-15T02:37:50.473Z,15.30
2018-09-15T02:40:24.614Z,15.30
2018-09-15T02:42:59.410Z,15.40
2018-09-15T02:45:34.258Z,15.30
2018-09-15T02:48:08.386Z,15.30
2018-09-15T02:50:42.447Z,15.30
2018-09-15T02:53:19.280Z,14.80
2018-09-15T02:55:53.200Z,14.80
2018-09-15T02:58:27.049Z,14.90
2018-09-15T03:01:01.076Z,15.00
2018-09-15T03:03:35.083Z,15.20
2018-09-15T03:06:09.125Z,15.20
2018-09-15T03:08:43.175Z,15.10
2018-09-15T03:11:17.235Z,15.00
2018-09-15T03:13:51.361Z,15.00
2018-09-15T03:16:25.470Z,15.00
2018-09-15T03:18:59.578Z,15.00
2018-09-15T03:21:34.405Z,14.60
2018-09-15T03:24:09.144Z,14.40
2018-09-15T03:26:43.070Z,14.30
2018-09-15T03:29:17.085Z,14.00
2018-09-15T03:31:51.053Z,14.00
2018-09-15T03:34:25.122Z,14.20
2018-09-15T03:36:59.184Z,14.10
2018-09-15T03:39:33.196Z,14.10
2018-09-15T03:42:07.229Z,14.40
2018-09-15T03:44:41.321Z,14.20
2018-09-15T03:47:15.441Z,13.90
2018-09-15T03:49:49.477Z,14.30
2018-09-15T03:52:23.485Z,14.30
2018-09-15T03:54:57.552Z,14.20
2018-09-15T03:57:32.415Z,14.50
2018-09-15T04:00:06.323Z,14.40
2018-09-15T04:02:40.446Z,14.40
2018-09-15T04:05:14.522Z,14.40
2018-09-15T04:07:48.562Z,14.40
2018-09-15T04:10:22.676Z,14.30
2018-09-15T04:12:56.770Z,14.50
2018-09-15T04:15:30.825Z,14.60
2018-09-15T04:18:04.749Z,14.70
2018-09-15T04:20:38.804Z,14.70
2018-09-15T04:23:12.945Z,14.60
2018-09-15T04:25:46.996Z,14.60
2018-09-15T04:28:21.052Z,14.60
2018-09-15T04:30:55.880Z,14.50
2018-09-15T04:33:29.845Z,14.50
2018-09-15T04:36:04.642Z,14.40
2018-09-15T04:38:39.269Z,14.40
2018-09-15T04:41:13.274Z,14.40
2018-09-15T04:43:47.286Z,14.30
2018-09-15T04:46:21.306Z,14.30
2018-09-15T04:48:56.152Z,13.90
2018-09-15T04:51:30.996Z,13.80
2018-09-15T04:54:05.129Z,13.70
2018-09-15T04:56:39.182Z,14.00
2018-09-15T04:59:13.259Z,13.90
2018-09-15T05:01:48.204Z,13.90
2018-09-15T05:04:22.141Z,14.00
2018-09-15T05:06:56.869Z,13.80
2018-09-15T05:09:30.760Z,13.80
2018-09-15T05:12:04.861Z,13.90
2018-09-15T05:14:39.670Z,13.90
2018-09-15T05:17:14.065Z,13.90
2018-09-15T05:19:47.922Z,14.00
2018-09-15T05:22:25.925Z,14.00
2018-09-15T05:24:59.784Z,14.10
2018-09-15T05:27:33.845Z,14.10
2018-09-15T05:30:07.956Z,14.10
2018-09-15T05:32:42.081Z,14.10
2018-09-15T05:35:16.074Z,14.20
2018-09-15T05:37:50.096Z,14.10
2018-09-15T05:40:24.217Z,14.10
2018-09-15T05:42:58.262Z,14.00
2018-09-15T05:45:32.277Z,13.80
2018-09-15T05:48:06.245Z,14.00
2018-09-15T05:50:40.312Z,14.20
2018-09-15T05:53:14.369Z,14.30
2018-09-15T05:55:48.477Z,14.20
2018-09-15T05:58:22.539Z,14.10
2018-09-15T06:00:56.610Z,14.10
2018-09-15T06:03:30.740Z,14.30
2018-09-15T06:06:05.566Z,14.20
2018-09-15T06:08:40.199Z,14.40
2018-09-15T06:11:14.103Z,14.40
2018-09-15T06:13:48.232Z,14.50
2018-09-15T06:16:22.204Z,14.20
2018-09-15T06:18:56.369Z,14.10
2018-09-15T06:21:30.432Z,14.30
2018-09-15T06:24:04.545Z,14.60
2018-09-15T06:26:38.587Z,14.60
2018-09-15T06:29:12.625Z,14.50
2018-09-15T06:31:47.032Z,14.60
2018-09-15T06:34:21.061Z,14.70
2018-09-15T06:36:55.116Z,14.60
2018-09-15T06:39:29.155Z,14.70
2018-09-15T06:42:03.632Z,14.70
2018-09-15T06:44:37.497Z,14.70
2018-09-15T06:47:11.586Z,14.70
2018-09-15T06:49:45.753Z,14.90
2018-09-15T06:52:20.576Z,15.00
2018-09-15T06:54:54.648Z,14.90
2018-09-15T06:57:28.748Z,15.10
2018-09-15T07:00:02.921Z,14.90
2018-09-15T07:02:36.992Z,14.80
2018-09-15T07:05:19.317Z,14.90
2018-09-15T07:07:53.185Z,15.20
2018-09-15T07:10:27.237Z,15.20
2018-09-15T07:13:01.242Z,15.00
2018-09-15T07:15:35.225Z,15.00
2018-09-15T07:18:09.341Z,15.10
2018-09-15T07:20:43.350Z,15.10
2018-09-15T07:23:17.471Z,15.10
2018-09-15T07:25:51.516Z,15.20
2018-09-15T07:28:25.586Z,15.30
2018-09-15T07:30:59.709Z,15.20
2018-09-15T07:33:33.822Z,15.50
2018-09-15T07:36:08.701Z,15.50
2018-09-15T07:38:42.793Z,15.50
2018-09-15T07:41:16.996Z,15.50
2018-09-15T07:43:51.090Z,15.70
2018-09-15T07:46:25.217Z,15.60
2018-09-15T07:48:59.348Z,15.60
2018-09-15T07:51:33.340Z,15.70
2018-09-15T07:54:07.311Z,15.70
2018-09-15T07:56:41.384Z,15.80
2018-09-15T07:59:15.405Z,15.80
2018-09-15T08:01:49.439Z,15.80
2018-09-15T08:04:23.523Z,16.00
2018-09-15T08:06:57.649Z,16.10
2018-09-15T08:09:31.592Z,16.20
2018-09-15T08:12:05.661Z,16.30
2018-09-15T08:14:39.757Z,16.30
2018-09-15T08:17:13.877Z,16.40
2018-09-15T08:19:47.824Z,16.40
2018-09-15T08:22:21.797Z,16.30
2018-09-15T08:24:56.665Z,16.40
2018-09-15T08:27:30.773Z,16.50
2018-09-15T08:30:04.799Z,16.50
2018-09-15T08:32:39.708Z,16.70
2018-09-15T08:35:13.803Z,16.70
2018-09-15T08:37:47.846Z,16.70
2018-09-15T08:40:22.731Z,16.90
2018-09-15T08:42:56.770Z,16.90
2018-09-15T08:48:22.454Z,16.70
2018-09-15T08:51:00.322Z,17.00
2018-09-15T08:53:36.661Z,17.10
2018-09-15T08:56:10.752Z,17.20
2018-09-15T08:58:45.565Z,17.20
2018-09-15T09:01:19.605Z,17.20
2018-09-15T09:03:58.889Z,17.30
2018-09-15T09:06:32.902Z,17.40
2018-09-15T09:09:06.940Z,17.50
2018-09-15T09:11:41.026Z,17.70
2018-09-15T09:14:14.952Z,17.90
2018-09-15T09:16:49.057Z,17.90
2018-09-15T09:19:23.131Z,17.90
2018-09-15T09:21:57.338Z,17.90
2018-09-15T09:24:31.453Z,17.90
2018-09-15T09:27:05.633Z,17.90
2018-09-15T09:29:39.741Z,17.80
2018-09-15T09:32:13.905Z,18.20
2018-09-15T09:34:47.949Z,18.10
2018-09-15T09:37:21.939Z,18.20
2018-09-15T09:39:56.079Z,18.10
2018-09-15T09:42:30.172Z,18.00
2018-09-15T09:45:04.110Z,18.10
2018-09-15T09:47:38.823Z,18.30
2018-09-15T09:50:12.900Z,18.30
2018-09-15T09:52:47.808Z,18.40
2018-09-15T09:55:22.752Z,18.60
2018-09-15T09:57:57.619Z,18.70
2018-09-15T10:00:31.698Z,18.70
2018-09-15T10:03:05.889Z,18.90
2018-09-15T10:05:39.887Z,19.30
2018-09-15T10:08:13.995Z,19.00
2018-09-15T10:10:48.073Z,19.20
2018-09-15T10:13:22.217Z,19.30
2018-09-15T10:15:56.398Z,19.20
2018-09-15T10:18:33.477Z,18.80
2018-09-15T10:21:07.520Z,18.60
2018-09-15T10:23:41.537Z,18.70
2018-09-15T10:26:15.521Z,18.80
2018-09-15T10:28:49.613Z,18.80
2018-09-15T10:31:24.007Z,18.60
2018-09-15T10:33:58.161Z,18.70
2018-09-15T10:36:34.802Z,18.60
2018-09-15T10:39:09.136Z,18.60
2018-09-15T10:41:45.070Z,18.60
2018-09-15T10:44:19.132Z,18.60
2018-09-15T10:46:53.133Z,18.70
2018-09-15T10:49:27.373Z,18.60
2018-09-15T10:52:01.275Z,18.90
2018-09-15T10:54:36.782Z,19.30
2018-09-15T10:57:12.637Z,19.30
2018-09-15T10:59:46.786Z,19.50
2018-09-15T11:02:21.527Z,19.80
2018-09-15T11:05:09.540Z,19.80
2018-09-15T11:07:44.526Z,19.90
2018-09-15T11:10:18.507Z,19.90
2018-09-15T11:29:39.481Z,20.70
2018-09-15T11:32:13.477Z,20.50
2018-09-15T11:34:47.561Z,20.60
2018-09-15T11:37:21.611Z,20.40
2018-09-15T11:39:56.446Z,21.10
2018-09-15T11:42:31.099Z,21.30
2018-09-15T11:45:04.964Z,21.20
2018-09-15T11:47:39.832Z,20.70
2018-09-15T11:50:14.656Z,20.70
2018-09-15T11:52:48.674Z,21.00
2018-09-15T11:55:22.812Z,21.10
2018-09-15T11:57:56.867Z,21.70
2018-09-15T12:00:30.918Z,21.80
2018-09-15T12:03:05.055Z,21.70
2018-09-15T12:05:39.153Z,21.40
2018-09-15T12:08:13.260Z,20.90
2018-09-15T12:10:48.456Z,20.80
2018-09-15T12:13:22.880Z,20.80
2018-09-15T12:15:56.981Z,20.40
2018-09-15T12:18:31.900Z,20.50
2018-09-15T12:21:06.742Z,20.70
2018-09-15T12:23:40.834Z,20.60
2018-09-15T12:26:15.048Z,20.70
2018-09-15T12:28:50.004Z,21.10
2018-09-15T12:31:24.011Z,21.10
2018-09-15T12:33:58.233Z,21.60
2018-09-15T12:36:33.108Z,22.40
2018-09-15T12:39:07.222Z,22.30
2018-09-15T12:41:41.311Z,22.70
2018-09-15T12:44:15.470Z,22.40
2018-09-15T12:46:50.241Z,22.30
2018-09-15T12:49:24.511Z,22.30
2018-09-15T12:51:58.738Z,22.70
2018-09-15T12:54:32.672Z,22.60
2018-09-15T12:57:06.887Z,22.80
2018-09-15T12:59:41.168Z,23.10
2018-09-15T13:02:15.249Z,23.20
2018-09-15T13:04:53.721Z,22.70
2018-09-15T13:07:27.686Z,22.70
2018-09-15T13:10:01.856Z,22.60
2018-09-15T13:12:56.749Z,22.50
2018-09-15T13:15:30.968Z,22.20
2018-09-15T13:18:04.958Z,22.00
2018-09-15T13:20:39.240Z,21.90
2018-09-15T13:23:15.299Z,22.00
2018-09-15T13:25:50.376Z,22.10
2018-09-15T13:28:24.636Z,22.10
2018-09-15T13:30:58.717Z,22.10
2018-09-15T13:33:32.984Z,22.00
2018-09-15T13:36:06.927Z,22.30
2018-09-15T13:38:41.037Z,22.40
2018-09-15T13:41:15.160Z,22.60
2018-09-15T13:43:49.989Z,22.80
2018-09-15T13:46:24.061Z,22.70
2018-09-15T13:48:58.217Z,22.60
2018-09-15T13:51:32.135Z,22.60
2018-09-15T13:54:06.312Z,22.40
2018-09-15T13:56:40.457Z,22.40
2018-09-15T13:59:14.422Z,22.70
2018-09-15T14:01:49.253Z,22.80
2018-09-15T14:04:23.406Z,22.80
2018-09-15T14:06:57.525Z,22.80
2018-09-15T14:09:31.623Z,22.70
2018-09-15T14:12:05.761Z,22.90
2018-09-15T14:14:39.796Z,23.30
2018-09-15T14:17:13.929Z,23.30
2018-09-15T14:19:48.043Z,22.90
2018-09-15T14:22:22.071Z,22.40
2018-09-15T14:24:56.197Z,22.20
2018-09-15T14:27:30.227Z,22.10
2018-09-15T14:30:04.303Z,22.20
2018-09-15T14:32:38.317Z,22.60
2018-09-15T14:35:13.036Z,22.40
2018-09-15T14:37:46.945Z,22.40
2018-09-15T14:40:20.924Z,22.50
2018-09-15T14:42:54.913Z,22.50
2018-09-15T14:45:28.923Z,22.20
2018-09-15T14:48:02.870Z,22.50
2018-09-15T14:50:36.692Z,23.00
2018-09-15T14:53:11.416Z,22.80
2018-09-15T14:55:45.416Z,22.80
2018-09-15T14:58:19.513Z,22.40
2018-09-15T15:00:53.456Z,22.70
2018-09-15T15:03:28.249Z,22.50
2018-09-15T15:06:07.188Z,22.50
2018-09-15T15:12:03.664Z,22.60
2018-09-15T15:14:37.596Z,22.50
2018-09-15T15:17:11.561Z,22.50
2018-09-15T15:19:45.622Z,22.40
2018-09-15T15:22:19.693Z,22.60
2018-09-15T15:24:53.716Z,23.00
2018-09-15T15:27:27.824Z,23.10
2018-09-15T15:30:01.961Z,23.20
2018-09-15T15:32:38.263Z,23.60
2018-09-15T15:35:12.161Z,23.70
2018-09-15T15:37:46.957Z,23.40
2018-09-15T15:40:23.385Z,23.70
2018-09-15T15:43:12.361Z,23.70
2018-09-15T15:45:46.296Z,24.50
2018-09-15T15:48:20.198Z,25.50
2018-09-15T15:50:54.281Z,25.70
2018-09-15T15:53:28.953Z,24.90
2018-09-15T15:56:02.850Z,24.90
2018-09-15T15:58:37.184Z,24.80
2018-09-15T16:01:11.079Z,24.90
2018-09-15T16:03:45.137Z,25.10
2018-09-15T16:06:19.203Z,24.50
2018-09-15T16:08:53.933Z,23.70
2018-09-15T16:11:28.688Z,23.30
2018-09-15T16:14:02.672Z,23.30
2018-09-15T16:16:36.689Z,23.60
2018-09-15T16:19:10.773Z,24.90
2018-09-15T16:21:44.832Z,26.50
2018-09-15T16:24:18.778Z,28.20
2018-09-15T16:26:53.548Z,28.30
2018-09-15T16:29:28.300Z,27.60
2018-09-15T16:32:02.408Z,27.60
2018-09-15T16:34:36.422Z,27.10
2018-09-15T16:37:10.999Z,26.90
2018-09-15T16:39:44.969Z,26.90
2018-09-15T16:42:18.914Z,26.50
2018-09-15T16:44:52.961Z,25.60
2018-09-15T16:47:26.984Z,24.80
2018-09-15T16:50:01.061Z,25.10
2018-09-15T16:52:35.129Z,25.30
2018-09-15T16:55:09.171Z,25.00
2018-09-15T16:57:43.211Z,25.20
2018-09-15T17:00:18.033Z,23.70
2018-09-15T17:02:52.777Z,22.80
2018-09-15T17:05:27.446Z,22.40
2018-09-15T17:08:02.138Z,22.20
2018-09-15T17:10:36.029Z,22.20
2018-09-15T17:13:10.125Z,21.90
2018-09-15T17:15:44.239Z,21.80
2018-09-15T17:18:18.423Z,21.60
2018-09-15T17:20:53.284Z,21.50
2018-09-15T17:23:27.357Z,21.50
2018-09-15T17:26:02.193Z,21.50
2018-09-15T17:28:36.876Z,21.30
2018-09-15T17:31:10.887Z,21.40
2018-09-15T17:33:45.608Z,21.20
2018-09-15T17:36:19.533Z,21.20
2018-09-15T17:38:53.553Z,20.80
2018-09-15T17:41:27.669Z,20.40
2018-09-15T17:44:01.752Z,20.00
2018-09-15T17:46:35.601Z,20.10
2018-09-15T17:49:09.669Z,19.90
2018-09-15T17:51:43.684Z,19.90
2018-09-15T17:54:17.716Z,19.80
2018-09-15T17:56:52.126Z,20.10
2018-09-15T17:59:26.145Z,20.10
2018-09-15T18:02:00.250Z,20.10
2018-09-15T18:04:34.234Z,20.20
2018-09-15T18:07:08.265Z,20.10
2018-09-15T18:09:42.363Z,20.20
2018-09-15T18:12:16.424Z,20.10
2018-09-15T18:14:50.452Z,20.00
2018-09-15T18:17:25.890Z,20.00
2018-09-15T18:28:50.858Z,19.70
2018-09-15T18:34:58.943Z,19.70
2018-09-15T18:37:33.174Z,19.70
2018-09-15T18:40:07.393Z,19.40
2018-09-15T18:42:44.621Z,19.20
2018-09-15T18:45:18.575Z,19.20
2018-09-15T18:47:52.661Z,19.20
2018-09-15T18:50:26.729Z,19.20
2018-09-15T18:53:00.749Z,19.10
2018-09-15T18:55:34.611Z,19.10
2018-09-15T18:58:08.655Z,19.20
2018-09-15T19:00:42.737Z,19.20
2018-09-15T19:03:16.772Z,19.10
2018-09-15T19:05:51.610Z,19.10
2018-09-15T19:08:25.693Z,19.10
2018-09-15T19:10:59.729Z,19.00
2018-09-15T19:13:33.658Z,18.90
2018-09-15T19:16:08.517Z,18.80
2018-09-15T19:18:43.280Z,18.80
2018-09-15T19:21:18.119Z,18.80
2018-09-15T19:23:52.119Z,18.80
2018-09-15T19:26:26.119Z,18.80
2018-09-15T19:29:00.309Z,18.70
2018-09-15T19:31:35.089Z,18.60
2018-09-15T19:34:10.789Z,18.60
2018-09-15T19:36:44.850Z,18.60
2018-09-15T19:39:19.477Z,18.50
2018-09-15T19:41:53.587Z,18.50
2018-09-15T19:44:27.721Z,18.50
2018-09-15T19:47:01.749Z,18.40
2018-09-15T19:49:35.732Z,18.30
2018-09-15T19:52:09.634Z,18.30
2018-09-15T19:54:43.680Z,18.30
2018-09-15T19:57:17.617Z,18.30
2018-09-15T19:59:52.445Z,18.20
2018-09-15T20:02:26.491Z,18.20
2018-09-15T20:05:01.476Z,18.20
2018-09-15T20:07:35.451Z,18.10
2018-09-15T20:10:09.561Z,18.10
2018-09-15T20:12:45.172Z,18.00
2018-09-15T20:15:19.523Z,17.90
2018-09-15T20:17:53.366Z,17.80
2018-09-15T20:20:26.587Z,17.70
2018-09-15T20:23:00.721Z,17.70
2018-09-15T20:25:34.753Z,17.60
2018-09-15T20:28:08.885Z,17.40
2018-09-15T20:30:44.076Z,17.40
2018-09-15T20:33:18.226Z,17.40
2018-09-15T20:35:52.261Z,17.50
2018-09-15T20:38:26.306Z,17.40
2018-09-15T20:41:00.317Z,17.20
2018-09-15T20:43:34.380Z,17.30
2018-09-15T20:46:08.262Z,17.20
2018-09-15T20:48:42.313Z,17.20
2018-09-15T20:51:16.509Z,17.20
2018-09-15T20:53:50.541Z,17.30
2018-09-15T20:56:29.873Z,17.40
2018-09-15T20:59:03.884Z,17.30
2018-09-15T21:01:38.161Z,17.40
2018-09-15T21:04:12.365Z,17.30
2018-09-15T21:06:46.277Z,17.20
2018-09-15T23:07:06.789Z,13.30
2018-09-15T23:09:41.110Z,13.30
2018-09-15T23:12:16.032Z,13.90
2018-09-15T23:14:50.041Z,13.90
2018-09-15T23:17:24.173Z,14.20
2018-09-15T23:19:59.374Z,14.60
2018-09-15T23:22:33.469Z,14.60
2018-09-15T23:25:08.249Z,14.90
2018-09-15T23:27:42.224Z,14.90
2018-09-15T23:30:18.149Z,15.00
2018-09-15T23:32:52.259Z,15.00
2018-09-15T23:35:26.370Z,15.00
2018-09-15T23:38:00.717Z,15.10
2018-09-15T23:40:34.666Z,15.00
2018-09-15T23:43:09.529Z,15.10
2018-09-15T23:45:43.525Z,15.00
2018-09-15T23:48:17.853Z,15.10
2018-09-15T23:50:52.568Z,15.20
2018-09-15T23:53:26.452Z,15.20
2018-09-15T23:56:01.710Z,15.30
2018-09-15T23:58:35.805Z,15.20
